Time,TemperatureF,DewpointF,PressureIn,WindDirection,WindDirectionDegrees,WindSpeedMPH,WindSpeedGustMPH,Humidity,HourlyPrecipIn,Conditions,Clouds,dailyrainin,SoftwareType,DateUTC
2013-09-13 00:00:00,65.7,44.9,29.71,WNW,291,5.1,5.1,47,0.00,,FEW,-99.99,VWS V12.07,2013-09-12 22:00:00,
2013-09-13 00:10:00,65.7,44.9,29.71,WNW,291,5.1,5.1,47,0.00,,FEW,-99.99,VWS V12.07,2013-09-12 22:10:00,
2013-09-13 00:20:00,65.7,44.9,29.71,WNW,291,5.1,5.1,47,0.00,,FEW,-99.99,VWS V12.07,2013-09-12 22:20:00,
2013-09-13 00:30:00,65.3,44.6,29.71,WNW,291,5.1,5.1,47,0.98,,FEW,-99.99,VWS V12.07,2013-09-12 22:30:00,
2013-09-13 00:40:00,65.5,44.7,29.71,WNW,291,5.1,5.1,47,0.98,,FEW025,-99.99,VWS V12.07,2013-09-12 22:40:00,
2013-09-13 00:50:00,65.5,45.3,29.71,WNW,291,5.1,5.1,48,0.98,,FEW025,-99.99,VWS V12.07,2013-09-12 22:50:00,
2013-09-13 01:00:00,65.5,44.7,29.71,WNW,291,5.1,5.1,47,0.98,,FEW025,-99.99,VWS V12.07,2013-09-12 23:00:00,
2013-09-13 01:10:00,65.5,44.7,29.71,WNW,291,5.1,5.1,47,0.98,,FEW025,-99.99,VWS V12.07,2013-09-12 23:10:00,
2013-09-13 01:20:00,65.3,44.6,29.71,WNW,291,5.1,5.1,47,0.98,,FEW025,-99.99,VWS V12.07,2013-09-12 23:20:00,
2013-09-13 01:30:00,65.3,44.6,29.71,WNW,291,5.1,5.1,47,0.98,,FEW025,-99.99,VWS V12.07,2013-09-12 23:30:00,
2013-09-13 01:40:00,65.1,45.0,29.71,WNW,291,5.1,5.1,48,0.00,,FEW,-99.99,VWS V12.07,2013-09-12 23:40:00,
2013-09-13 01:50:00,65.1,44.4,29.71,WNW,291,5.1,5.1,47,0.00,,FEW,-99.99,VWS V12.07,2013-09-12 23:50:00,
2013-09-13 02:00:00,65.3,44.6,29.71,WNW,291,5.1,5.1,47,0.00,,FEW,-99.99,VWS V12.07,2013-09-13 00:00:00,
2013-09-13 02:10:00,65.1,44.4,29.71,WNW,291,5.1,5.1,47,0.00,,FEW,-99.99,VWS V12.07,2013-09-13 00:10:00,
2013-09-13 02:20:00,64.8,45.7,29.71,WNW,291,5.1,5.1,50,0.00,,FEW030,-99.99,VWS V12.07,2013-09-13 00:20:00,
2013-09-13 02:30:00,64.4,45.4,29.71,WNW,291,5.1,5.1,50,0.00,,FEW030,-99.99,VWS V12.07,2013-09-13 00:30:00,
2013-09-13 02:40:00,64.4,45.9,29.68,WNW,291,5.1,5.1,51,0.00,,FEW,-99.99,VWS V12.07,2013-09-13 00:40:00,
2013-09-13 02:50:00,64.4,45.9,29.68,WNW,291,5.1,5.1,51,0.00,,FEW,-99.99,VWS V12.07,2013-09-13 00:50:00,
2013-09-13 03:00:00,64.2,45.7,29.68,WNW,291,5.1,5.1,51,0.00,,FEW,-99.99,VWS V12.07,2013-09-13 01:00:00,
2013-09-13 03:10:00,64.2,45.7,29.68,WNW,291,5.1,5.1,51,0.00,,FEW,-99.99,VWS V12.07,2013-09-13 01:10:00,
2013-09-13 03:20:00,63.0,44.6,29.68,WNW,291,5.1,5.1,51,0.00,,FEW,-99.99,VWS V12.07,2013-09-13 01:20:00,
2013-09-13 03:30:00,62.2,46.8,29.68,WNW,291,5.1,5.1,57,0.00,,FEW,-99.99,VWS V12.07,2013-09-13 01:30:00,
2013-09-13 03:40:00,62.4,47.0,29.68,WNW,291,5.1,5.1,57,0.00,,FEW,-99.99,VWS V12.07,2013-09-13 01:40:00,
2013-09-13 03:50:00,62.6,46.7,29.68,WNW,291,5.1,5.1,56,0.00,,FEW,-99.99,VWS V12.07,2013-09-13 01:50:00,
2013-09-13 04:00:00,62.4,46.5,29.68,WNW,291,5.1,5.1,56,0.00,,FEW,-99.99,VWS V12.07,2013-09-13 02:00:00,
2013-09-13 04:10:00,62.8,46.9,29.68,WNW,291,5.1,5.1,56,0.00,,FEW,-99.99,VWS V12.07,2013-09-13 02:10:00,
2013-09-13 04:20:00,63.5,46.1,29.68,WNW,291,5.1,5.1,53,0.00,,FEW,-99.99,VWS V12.07,2013-09-13 02:20:00,
2013-09-13 04:30:00,62.1,46.7,29.68,WNW,291,5.1,5.1,57,0.00,,FEW,-99.99,VWS V12.07,2013-09-13 02:30:00,
2013-09-13 04:40:00,62.2,46.4,29.68,WNW,291,5.1,5.1,56,0.00,,FEW,-99.99,VWS V12.07,2013-09-13 02:40:00,
2013-09-13 04:50:00,62.8,45.4,29.68,WNW,291,5.1,5.1,53,0.00,,FEW,-99.99,VWS V12.07,2013-09-13 02:50:00,
2013-09-13 05:00:00,63.3,44.9,29.68,WNW,291,5.1,5.1,51,0.00,,FEW,-99.99,VWS V12.07,2013-09-13 03:00:00,
2013-09-13 05:10:00,63.5,44.5,29.68,WNW,291,5.1,5.1,50,0.00,,FEW,-99.99,VWS V12.07,2013-09-13 03:10:00,
2013-09-13 05:20:00,61.9,43.6,29.71,WNW,291,5.1,5.1,51,0.00,,FEW,-99.99,VWS V12.07,2013-09-13 03:20:00,
2013-09-13 05:30:00,60.6,44.8,29.71,WNW,291,5.1,5.1,56,0.00,,FEW,-99.99,VWS V12.07,2013-09-13 03:30:00,
2013-09-13 05:40:00,61.0,46.1,29.71,WNW,291,5.1,5.1,58,0.00,,FEW,-99.99,VWS V12.07,2013-09-13 03:40:00,
2013-09-13 05:50:00,61.5,46.6,29.68,WNW,291,5.1,5.1,58,0.00,,FEW,-99.99,VWS V12.07,2013-09-13 03:50:00,
2013-09-13 06:00:00,61.7,46.8,29.68,WNW,291,5.1,5.1,58,0.00,,FEW,-99.99,VWS V12.07,2013-09-13 04:00:00,
2013-09-13 06:05:00,61.7,46.3,29.71,WNW,291,5.1,5.1,57,0.00,,FEW,-99.99,VWS V12.07,2013-09-13 04:05:00,
2013-09-13 06:10:00,61.7,46.8,29.71,WNW,291,5.1,5.1,58,0.00,,FEW,-99.99,VWS V12.07,2013-09-13 04:10:00,
2013-09-13 06:20:00,61.7,46.8,29.71,WNW,291,5.1,5.1,58,0.00,,FEW,-99.99,VWS V12.07,2013-09-13 04:20:00,
2013-09-13 06:30:00,61.7,46.8,29.71,WNW,291,5.1,5.1,58,0.00,,FEW,-99.99,VWS V12.07,2013-09-13 04:30:00,
2013-09-13 06:35:00,61.7,46.8,29.71,WNW,291,5.1,5.1,58,0.00,,BKN,-99.99,VWS V12.07,2013-09-13 04:35:00,
2013-09-13 06:40:00,61.7,47.2,29.71,WNW,291,5.1,5.1,59,0.00,,BKN,-99.99,VWS V12.07,2013-09-13 04:40:00,
2013-09-13 06:50:00,61.7,47.2,29.71,WNW,291,5.1,5.1,59,0.00,,BKN,-99.99,VWS V12.07,2013-09-13 04:50:00,
2013-09-13 06:55:00,61.3,46.9,29.71,WNW,291,5.1,5.1,59,0.00,,BKN,-99.99,VWS V12.07,2013-09-13 04:55:00,
2013-09-13 07:00:00,61.3,49.1,29.71,WNW,291,5.1,5.1,64,0.00,,BKN,-99.99,VWS V12.07,2013-09-13 05:00:00,
2013-09-13 07:10:00,61.5,49.2,29.71,WNW,291,5.1,5.1,64,0.00,,BKN,-99.99,VWS V12.07,2013-09-13 05:10:00,
2013-09-13 07:20:00,61.7,47.7,29.71,WNW,291,5.1,5.1,60,0.00,,BKN,-99.99,VWS V12.07,2013-09-13 05:20:00,
2013-09-13 07:30:00,61.9,46.0,29.71,WNW,291,5.1,5.1,56,0.00,,BKN,-99.99,VWS V12.07,2013-09-13 05:30:00,
2013-09-13 07:40:00,63.0,46.1,29.71,WNW,291,5.1,5.1,54,0.00,,BKN040,-99.99,VWS V12.07,2013-09-13 05:40:00,
2013-09-13 07:50:00,63.5,45.6,29.71,WNW,291,5.1,5.1,52,0.00,,BKN040,-99.99,VWS V12.07,2013-09-13 05:50:00,
2013-09-13 08:00:00,64.2,46.2,29.71,WNW,291,5.1,5.1,52,0.00,,BKN040,-99.99,VWS V12.07,2013-09-13 06:00:00,
2013-09-13 08:10:00,64.2,45.2,29.71,WNW,291,5.1,5.1,50,0.00,,BKN040,-99.99,VWS V12.07,2013-09-13 06:10:00,
2013-09-13 08:21:00,64.8,45.7,29.71,WNW,291,5.1,5.1,50,0.00,,BKN040,-99.99,VWS V12.07,2013-09-13 06:21:00,
2013-09-13 08:31:00,65.3,45.1,29.71,SE,137,0.0,0.0,48,0.00,,BKN040,-99.99,VWS V12.07,2013-09-13 06:31:00,
2013-09-13 08:41:00,65.7,46.0,29.71,South,174,0.0,3.6,49,0.00,,BKN,-99.99,VWS V12.07,2013-09-13 06:41:00,
2013-09-13 08:50:00,65.3,46.7,29.71,South,174,0.0,0.0,51,0.00,,BKN,-99.99,VWS V12.07,2013-09-13 06:50:00,
2013-09-13 09:00:00,65.5,47.4,29.71,SW,222,3.1,3.6,52,0.00,,BKN,-99.99,VWS V12.07,2013-09-13 07:00:00,
2013-09-13 09:11:00,65.5,46.9,29.74,SW,234,4.0,4.5,51,0.00,,BKN,-99.99,VWS V12.07,2013-09-13 07:11:00,
2013-09-13 09:21:00,65.5,46.9,29.74,SW,225,3.6,4.0,51,0.00,,BKN,-99.99,VWS V12.07,2013-09-13 07:21:00,
2013-09-13 09:30:00,66.0,46.9,29.74,SW,222,0.0,3.1,50,0.00,,BKN,-99.99,VWS V12.07,2013-09-13 07:30:00,
2013-09-13 09:40:00,66.6,44.6,29.74,SSW,209,0.0,3.6,45,0.00,,BKN,-99.99,VWS V12.07,2013-09-13 07:40:00,
2013-09-13 09:50:00,66.9,44.3,29.74,West,264,2.7,2.7,44,0.00,,BKN,-99.99,VWS V12.07,2013-09-13 07:50:00,
2013-09-13 10:01:00,67.6,45.0,29.74,West,263,2.7,4.0,44,0.00,,BKN,-99.99,VWS V12.07,2013-09-13 08:01:00,
2013-09-13 10:10:00,68.7,42.1,29.74,SSW,201,0.0,2.7,38,0.00,,BKN,-99.99,VWS V12.07,2013-09-13 08:10:00,
2013-09-13 10:20:00,70.0,41.8,29.74,SSW,210,4.0,4.5,36,0.00,,BKN,-99.99,VWS V12.07,2013-09-13 08:20:00,
2013-09-13 10:30:00,70.0,42.5,29.74,SSE,165,4.5,4.7,37,0.00,,BKN,-99.99,VWS V12.07,2013-09-13 08:30:00,
2013-09-13 10:40:00,70.3,42.2,29.74,SSE,163,2.7,4.0,36,0.00,,SCT,-99.99,VWS V12.07,2013-09-13 08:40:00,
2013-09-13 10:50:00,71.4,41.6,29.74,West,259,3.6,4.0,34,0.00,,SCT,-99.99,VWS V12.07,2013-09-13 08:50:00,
2013-09-13 11:00:00,71.8,41.2,29.74,SSE,155,5.1,5.1,33,0.00,,SCT,-99.99,VWS V12.07,2013-09-13 09:00:00,
2013-09-13 11:10:00,72.5,41.0,29.74,SW,233,3.1,4.0,32,0.00,,SCT,-99.99,VWS V12.07,2013-09-13 09:10:00,
2013-09-13 11:20:00,72.0,40.5,29.74,SSW,194,2.7,4.5,32,0.00,,SCT,-99.99,VWS V12.07,2013-09-13 09:20:00,
2013-09-13 11:31:00,72.3,40.8,29.74,ENE,71,0.0,4.5,32,0.00,,SCT,-99.99,VWS V12.07,2013-09-13 09:31:00,
2013-09-13 11:41:00,73.0,40.6,29.74,SSE,148,4.7,5.1,31,0.00,,FEW,-99.99,VWS V12.07,2013-09-13 09:41:00,
2013-09-13 11:51:00,73.6,40.3,29.74,ESE,119,2.7,5.6,30,0.00,,FEW,-99.99,VWS V12.07,2013-09-13 09:51:00,
2013-09-13 12:01:00,73.9,39.7,29.74,SW,223,0.0,5.6,29,0.00,,FEW,-99.99,VWS V12.07,2013-09-13 10:01:00,
2013-09-13 12:11:00,74.1,37.1,29.74,South,170,4.0,5.1,26,0.00,,FEW,-99.99,VWS V12.07,2013-09-13 10:11:00,
2013-09-13 12:21:00,74.5,36.4,29.74,ESE,119,3.6,6.9,25,0.00,,FEW,-99.99,VWS V12.07,2013-09-13 10:21:00,
2013-09-13 12:28:00,74.7,36.5,29.74,SSW,213,3.6,3.6,25,0.00,,FEW,-99.99,VWS V12.07,2013-09-13 10:28:00,
2013-09-13 12:36:00,75.2,37.0,29.74,South,179,3.6,5.1,25,0.00,,FEW,-99.99,VWS V12.07,2013-09-13 10:36:00,
2013-09-13 12:41:00,75.4,36.1,29.74,SE,125,4.5,6.0,24,0.00,,FEW,-99.99,VWS V12.07,2013-09-13 10:41:00,
2013-09-13 12:50:00,75.4,36.1,29.74,SSW,202,6.5,7.8,24,0.00,,FEW,-99.99,VWS V12.07,2013-09-13 10:50:00,
2013-09-13 13:01:00,75.4,36.1,29.74,SSE,168,4.0,8.7,24,0.00,,FEW,-99.99,VWS V12.07,2013-09-13 11:01:00,
2013-09-13 13:11:00,75.4,36.1,29.74,SSW,204,4.5,8.3,24,0.00,,FEW,-99.99,VWS V12.07,2013-09-13 11:11:00,
2013-09-13 13:20:00,75.4,36.1,29.74,WNW,284,4.0,4.0,24,0.00,,FEW,-99.99,VWS V12.07,2013-09-13 11:20:00,
2013-09-13 13:30:00,76.3,35.8,29.74,ESE,121,3.1,4.7,23,0.00,,FEW,-99.99,VWS V12.07,2013-09-13 11:30:00,
2013-09-13 13:40:00,76.3,35.8,29.74,WSW,253,4.0,6.9,23,0.00,,FEW025,-99.99,VWS V12.07,2013-09-13 11:40:00,
2013-09-13 13:50:00,76.3,35.8,29.74,East,100,0.0,4.7,23,0.00,,FEW025,-99.99,VWS V12.07,2013-09-13 11:50:00,
2013-09-13 14:00:00,76.3,35.8,29.74,South,173,0.0,0.0,23,0.00,,FEW025,-99.99,VWS V12.07,2013-09-13 12:00:00,
2013-09-13 14:10:00,77.2,34.3,29.74,West,265,4.5,6.9,21,0.00,,FEW025,-99.99,VWS V12.07,2013-09-13 12:10:00,
2013-09-13 14:20:00,76.8,34.0,29.74,NNE,15,0.0,3.6,21,0.00,,FEW025,-99.99,VWS V12.07,2013-09-13 12:20:00,
2013-09-13 14:30:00,77.0,34.1,29.74,NNE,15,0.0,0.0,21,0.00,,FEW025,-99.99,VWS V12.07,2013-09-13 12:30:00,
2013-09-13 14:40:00,76.5,36.0,29.74,WSW,240,4.0,6.9,23,0.00,,FEW,-99.99,VWS V12.07,2013-09-13 12:40:00,
2013-09-13 14:50:00,77.4,34.4,29.74,SSW,203,6.9,6.9,21,0.00,,FEW,-99.99,VWS V12.07,2013-09-13 12:50:00,
2013-09-13 15:00:00,77.4,36.7,29.74,WSW,253,9.4,9.4,23,0.00,,FEW,-99.99,VWS V12.07,2013-09-13 13:00:00,
2013-09-13 15:10:00,77.2,37.6,29.74,West,263,3.6,4.5,24,0.00,,FEW,-99.99,VWS V12.07,2013-09-13 13:10:00,
2013-09-13 15:20:00,76.5,38.1,29.74,SW,232,6.0,6.0,25,0.00,,FEW,-99.99,VWS V12.07,2013-09-13 13:20:00,
2013-09-13 15:30:00,76.3,38.9,29.74,SW,232,6.0,6.0,26,0.00,,FEW,-99.99,VWS V12.07,2013-09-13 13:30:00,
2013-09-13 15:40:00,76.3,39.9,29.74,SW,227,8.3,8.3,27,0.00,,FEW025,-99.99,VWS V12.07,2013-09-13 13:40:00,
2013-09-13 15:50:00,76.5,40.0,29.74,West,269,5.6,6.5,27,0.00,,FEW025,-99.99,VWS V12.07,2013-09-13 13:50:00,
2013-09-13 16:00:00,76.6,40.2,29.74,WNW,288,10.3,10.3,27,0.00,,FEW025,-99.99,VWS V12.07,2013-09-13 14:00:00,
2013-09-13 16:10:00,76.1,40.7,29.74,WSW,240,8.9,8.9,28,0.00,,FEW025,-99.99,VWS V12.07,2013-09-13 14:10:00,
2013-09-13 16:20:00,76.3,41.7,29.74,WSW,240,8.9,8.9,29,0.00,,FEW025,-99.99,VWS V12.07,2013-09-13 14:20:00,
2013-09-13 16:30:00,75.7,41.3,29.74,WSW,240,8.9,8.9,29,0.00,,FEW025,-99.99,VWS V12.07,2013-09-13 14:30:00,
2013-09-13 16:40:00,76.1,40.7,29.74,WSW,240,8.9,8.9,28,0.00,,FEW025,-99.99,VWS V12.07,2013-09-13 14:40:00,
2013-09-13 16:50:00,75.4,41.8,29.74,WSW,240,8.9,8.9,30,0.00,,FEW025,-99.99,VWS V12.07,2013-09-13 14:50:00,
2013-09-13 17:00:00,76.1,42.5,29.74,WSW,240,8.9,8.9,30,0.00,,FEW025,-99.99,VWS V12.07,2013-09-13 15:00:00,
2013-09-13 17:10:00,76.1,39.7,29.74,WSW,240,8.9,8.9,27,0.00,,FEW025,-99.99,VWS V12.07,2013-09-13 15:10:00,
2013-09-13 17:20:00,75.9,40.5,29.74,WSW,240,8.9,8.9,28,0.00,,FEW025,-99.99,VWS V12.07,2013-09-13 15:20:00,
2013-09-13 17:30:00,75.9,39.6,29.74,WSW,240,8.9,8.9,27,0.00,,FEW025,-99.99,VWS V12.07,2013-09-13 15:30:00,
2013-09-13 17:44:00,75.6,39.3,29.74,WSW,240,8.9,8.9,27,0.00,,FEW,-99.99,VWS V12.07,2013-09-13 15:44:00,
2013-09-13 17:50:00,75.2,39.0,29.74,WSW,240,8.9,8.9,27,0.00,,FEW,-99.99,VWS V12.07,2013-09-13 15:50:00,
2013-09-13 18:00:00,75.2,39.0,29.74,WSW,240,8.9,8.9,27,0.00,,FEW,-99.99,VWS V12.07,2013-09-13 16:00:00,
2013-09-13 18:10:00,74.8,38.7,29.74,WSW,240,8.9,8.9,27,0.00,,FEW,-99.99,VWS V12.07,2013-09-13 16:10:00,
2013-09-13 18:20:00,74.7,40.3,29.74,WSW,240,8.9,8.9,29,0.00,,FEW,-99.99,VWS V12.07,2013-09-13 16:20:00,
2013-09-13 18:30:00,74.5,41.9,29.74,WSW,240,8.9,8.9,31,0.00,,FEW,-99.99,VWS V12.07,2013-09-13 16:30:00,
2013-09-13 18:40:00,73.9,41.4,29.77,WSW,240,8.9,8.9,31,0.00,,FEW,-99.99,VWS V12.07,2013-09-13 16:40:00,
2013-09-13 18:50:00,73.4,41.8,29.77,WSW,240,8.9,8.9,32,0.00,,FEW,-99.99,VWS V12.07,2013-09-13 16:50:00,
2013-09-13 19:00:00,72.9,42.1,29.77,WSW,240,8.9,8.9,33,0.00,,FEW,-99.99,VWS V12.07,2013-09-13 17:00:00,
2013-09-13 19:10:00,72.3,43.2,29.77,WSW,240,8.9,8.9,35,0.00,,FEW,-99.99,VWS V12.07,2013-09-13 17:10:00,
2013-09-13 19:20:00,72.1,43.7,29.77,WSW,240,8.9,8.9,36,0.00,,FEW,-99.99,VWS V12.07,2013-09-13 17:20:00,
2013-09-13 19:30:00,71.8,43.4,29.77,WSW,240,8.9,8.9,36,0.00,,FEW,-99.99,VWS V12.07,2013-09-13 17:30:00,
2013-09-13 19:40:00,71.8,43.4,29.77,WSW,240,8.9,8.9,36,0.00,,FEW200,-99.99,VWS V12.07,2013-09-13 17:40:00,
2013-09-13 19:50:00,71.8,44.1,29.77,WSW,240,8.9,8.9,37,0.00,,FEW200,-99.99,VWS V12.07,2013-09-13 17:50:00,
2013-09-13 20:00:00,71.6,44.7,29.77,WSW,240,8.9,8.9,38,0.00,,FEW200,-99.99,VWS V12.07,2013-09-13 18:00:00,
2013-09-13 20:10:00,71.8,45.5,29.77,WSW,240,8.9,8.9,39,0.00,,FEW200,-99.99,VWS V12.07,2013-09-13 18:10:00,
2013-09-13 20:20:00,71.4,45.2,29.80,WSW,240,8.9,8.9,39,0.00,,FEW200,-99.99,VWS V12.07,2013-09-13 18:20:00,
2013-09-13 20:30:00,71.6,46.0,29.80,WSW,240,8.9,8.9,40,0.00,,FEW200,-99.99,VWS V12.07,2013-09-13 18:30:00,
2013-09-13 20:40:00,71.4,45.9,29.80,WSW,240,8.9,8.9,40,0.00,,BKN200,-99.99,VWS V12.07,2013-09-13 18:40:00,
2013-09-13 20:48:00,71.1,46.8,29.80,WSW,240,8.9,8.9,42,0.00,,BKN200,-99.99,VWS V12.07,2013-09-13 18:48:00,
2013-09-13 20:55:00,70.7,46.5,29.80,WSW,240,8.9,8.9,42,0.00,,BKN200,-99.99,VWS V12.07,2013-09-13 18:55:00,
2013-09-13 21:01:00,70.5,47.0,29.80,WSW,240,8.9,8.9,43,0.00,,BKN200,-99.99,VWS V12.07,2013-09-13 19:01:00,
2013-09-13 21:10:00,70.7,46.5,29.80,WSW,240,8.9,8.9,42,0.00,,BKN200,-99.99,VWS V12.07,2013-09-13 19:10:00,
2013-09-13 21:21:00,71.2,45.7,29.80,WSW,240,8.9,8.9,40,0.00,,BKN200,-99.99,VWS V12.07,2013-09-13 19:21:00,
2013-09-13 21:31:00,71.4,45.9,29.80,WSW,240,8.9,8.9,40,0.00,,BKN200,-99.99,VWS V12.07,2013-09-13 19:31:00,
2013-09-13 21:40:00,71.4,45.9,29.80,WSW,240,8.9,8.9,40,0.00,,SCT,-99.99,VWS V12.07,2013-09-13 19:40:00,
2013-09-13 21:50:00,71.2,46.4,29.80,WSW,240,8.9,8.9,41,0.00,,SCT,-99.99,VWS V12.07,2013-09-13 19:50:00,
2013-09-13 22:00:00,70.7,46.5,29.80,WSW,240,8.9,8.9,42,0.00,,SCT,-99.99,VWS V12.07,2013-09-13 20:00:00,
2013-09-13 22:10:00,70.2,46.6,29.80,WSW,240,8.9,8.9,43,0.00,,SCT,-99.99,VWS V12.07,2013-09-13 20:10:00,
2013-09-13 22:20:00,69.8,46.9,29.83,WSW,240,8.9,8.9,44,0.00,,SCT,-99.99,VWS V12.07,2013-09-13 20:20:00,
2013-09-13 22:30:00,69.4,46.6,29.83,WSW,240,8.9,8.9,44,0.00,,SCT,-99.99,VWS V12.07,2013-09-13 20:30:00,
2013-09-13 22:40:00,69.3,47.6,29.83,WSW,240,8.9,8.9,46,0.00,,FEW070,-99.99,VWS V12.07,2013-09-13 20:40:00,
2013-09-13 22:50:00,69.4,47.8,29.83,WSW,240,8.9,8.9,46,0.00,,FEW070,-99.99,VWS V12.07,2013-09-13 20:50:00,
2013-09-13 23:00:00,69.1,47.5,29.83,WSW,240,8.9,8.9,46,0.00,,FEW070,-99.99,VWS V12.07,2013-09-13 21:00:00,
2013-09-13 23:10:00,68.7,48.3,29.83,WSW,240,8.9,8.9,48,0.00,,FEW070,-99.99,VWS V12.07,2013-09-13 21:10:00,
2013-09-13 23:20:00,68.7,47.1,29.83,WSW,240,8.9,8.9,46,0.00,,FEW070,-99.99,VWS V12.07,2013-09-13 21:20:00,
2013-09-13 23:30:00,68.7,46.5,29.83,WSW,240,8.9,8.9,45,0.00,,FEW070,-99.99,VWS V12.07,2013-09-13 21:30:00,
2013-09-13 23:40:00,68.5,46.4,29.83,WSW,240,8.9,8.9,45,0.00,,SCT200,-99.99,VWS V12.07,2013-09-13 21:40:00,
2013-09-13 23:50:00,68.2,46.6,29.83,WSW,240,8.9,8.9,46,0.00,,SCT200,-99.99,VWS V12.07,2013-09-13 21:50:00,